Latest Coastal Weather Observations for Newcastle Nobbys

IDN60701

Issued at 3:25 am EST Sunday 24 August 2014 (issued every 10 minutes, with the page automatically refreshed every 10 minutes)

About coastal observations | Map of coastal stations | Coastal observations for NSW | Marine services | Other Formats
Station Details ID: 061055 Name: NEWCASTLE NOBBYS SIGNAL STATION AWS Lat: -32.92 Lon: 151.80 Height: 33.0 m
Data from the previous 72 hours. | See also: Recent months at Newcastle Nobbys
Date/Time
EST
Temp

°C
Wind Pressure Rain
since 9am
mm
Weather Cloud Vis
km
Sea
Height
m
Swell
Dir
 
Speed
knots
Gust
knots
hPa Trend Height
m
Period
s
Dir
24/03:00am 14.2 SW 5 7 - - 4.8 - - - - - - -
24/02:30am 14.1 SW 4 7 - - 4.8 - - - - - - -
24/02:00am 14.2 SW 5 8 - - 4.8 - - - - - - -
24/01:30am 14.4 SW 6 8 - - 4.8 - - - - - - -
24/01:00am 14.3 SSW 6 9 - - 4.8 - - - - - - -
24/12:30am 14.3 SW 7 8 - - 4.8 - - - - - - -
24/12:00am 14.4 SW 6 9 - - 4.8 - - - - - - -
 
Date/Time
EST
Temp

°C
Wind Pressure Rain
since 9am
mm
Weather Cloud Vis
km
Sea
Height
m
Swell
Dir
 
Speed
knots
Gust
knots
hPa Trend Height
m
Period
s
Dir
23/11:30pm 14.2 SW 4 6 - - 4.8 - - - - - - -
23/11:00pm 14.3 W 4 6 - - 4.8 - - - - - - -
23/10:30pm 14.5 W 4 5 - - 4.8 - - - - - - -
23/10:00pm 14.8 SW 6 8 - - 4.8 - - - - - - -
23/09:30pm 14.8 SSW 8 10 - - 4.8 - - - - - - -
23/09:00pm 14.9 S 9 11 - - 4.8 - - - - - - -
23/08:30pm 14.9 S 8 10 - - 4.8 - - - - - - -
23/08:00pm 15.1 S 6 8 - - 4.8 - - - - - - -
23/07:30pm 14.9 SSE 3 5 - - 4.8 - - - - - - -
23/07:00pm 14.8 SE 7 9 - - 4.8 - - - - - - -
23/06:30pm 14.7 ESE 5 7 - - 4.8 - - - - - - -
23/06:00pm 14.7 S 5 6 - - 4.8 Recent precip. - - - - - -
23/05:30pm 14.4 S 4 5 - - 4.8 - - - - - - -
23/05:00pm 14.2 NNW 1 2 - - 4.6 - - - - - - -
23/04:30pm 14.0 ESE 2 3 - - 4.4 - - - - - - -
23/04:00pm 13.8 E 4 4 - - 3.6 - - - - - - -
23/03:30pm 14.9 E 14 18 - - 1.8 - - - - - - -
23/03:00pm 16.9 CALM 0 2 - - 0.4 - - - - - - -
23/02:30pm 17.1 N 1 3 - - 0.4 - - - - - - -
23/02:00pm 16.6 NE 2 3 - - 0.4 - - - - - - -
23/01:30pm 16.1 E 4 5 - - 0.4 - - - - - - -
23/01:00pm 15.5 SE 7 11 - - 0.4 - - - - - - -
23/12:30pm 15.2 S 10 13 - - 0.2 - - - - - - -
23/12:00pm 16.0 S 11 13 - - 0.0 - - - - - - -
23/11:30am 15.9 SSW 10 13 - - 0.0 - - - - - - -
23/11:00am 15.6 S 12 14 - - 0.0 - - - - - - -
23/10:30am 15.4 SSW 10 13 - - 0.0 - - - - - - -
23/10:00am 15.5 SSW 9 12 - - 0.0 - - - - - - -
23/09:30am 14.9 SSW 8 11 - - 0.0 - - - - - - -
23/09:00am 14.7 SSW 9 12 - - 1.2 Recent precip. - - - - - -
23/08:30am 14.7 SSW 11 13 - - 1.2 - - - - - - -
23/08:00am 14.3 SW 8 12 - - 1.0 - - - - - - -
23/07:30am 13.8 SSW 10 14 - - 1.0 - - - - - - -
23/07:00am 13.7 SSW 11 14 - - 1.0 - - - - - - -
23/06:30am 13.7 SSW 5 7 - - 1.0 - - - - - - -
23/06:00am 13.3 SSW 6 9 - - 1.0 - - - - - - -
23/05:30am 13.2 SW 5 7 - - 1.0 - - - - - - -
23/05:00am 13.6 SSW 6 8 - - 1.0 - - - - - - -
23/04:30am 12.7 SW 2 3 - - 1.0 - - - - - - -
23/04:00am 12.6 W 5 7 - - 1.0 - - - - - - -
23/03:30am 12.8 W 5 5 - - 0.8 - - - - - - -
23/03:00am 13.0 W 5 6 - - 0.8 - - - - - - -
23/02:30am 13.3 WNW 4 7 - - 0.8 - - - - - - -
23/02:00am 13.9 NNW 4 7 - - 0.8 - - - - - - -
23/01:30am 14.6 SSW 3 5 - - 0.8 - - - - - - -
23/01:00am 15.1 S 4 6 - - 0.8 - - - - - - -
23/12:30am 14.4 CALM 0 2 - - 0.8 - - - - - - -
23/12:00am 14.3 WNW 3 4 - - 0.8 Rain - - - - - -
 
Date/Time
EST
Temp

°C
Wind Pressure Rain
since 9am
mm
Weather Cloud Vis
km
Sea
Height
m
Swell
Dir
 
Speed
knots
Gust
knots
hPa Trend Height
m
Period
s
Dir
22/11:30pm 14.1 E 7 8 - - 0.6 - - - - - - -
22/11:00pm 14.2 ENE 12 15 - - 0.2 - - - - - - -
22/10:30pm 15.5 E 6 8 - - 0.2 - - - - - - -
22/10:00pm 14.9 E 5 6 - - 0.2 - - - - - - -
22/09:30pm 14.7 SE 7 7 - - 0.2 - - - - - - -
22/09:00pm 14.9 SE 15 20 - - 0.2 - - - - - - -
22/08:30pm 15.1 SSE 9 11 - - 0.2 - - - - - - -
22/08:00pm 15.2 SE 11 15 - - 0.2 - - - - - - -
22/07:30pm 15.5 SSE 9 10 - - 0.2 - - - - - - -
22/07:00pm 15.4 ESE 14 18 - - 0.2 - - - - - - -
22/06:30pm 16.3 SSE 11 13 - - 0.2 - - - - - - -
22/06:00pm 16.3 SE 12 14 - - 0.2 - - - - - - -
22/05:30pm 16.6 SSE 12 14 - - 0.2 - - - - - - -
22/05:00pm 16.9 SSE 12 14 - - 0.2 - - - - - - -
22/04:30pm 16.7 S 12 14 - - 0.2 - - - - - - -
22/04:00pm 16.6 S 12 15 - - 0.2 - - - - - - -
22/03:30pm 16.6 S 13 15 - - 0.2 - - - - - - -
22/03:00pm 16.4 S 13 15 - - 0.2 - - - - - - -
22/02:30pm 16.4 S 13 15 - - 0.2 - - - - - - -
22/02:00pm 16.4 S 13 14 - - 0.2 - - - - - - -
22/01:30pm 16.4 S 12 14 - - 0.2 - - - - - - -
22/01:00pm 16.3 S 13 14 - - 0.2 - - - - - - -
22/12:30pm 16.4 S 12 13 - - 0.2 - - - - - - -
22/12:00pm 16.4 SSW 10 13 - - 0.2 Recent precip. - - - - - -
22/11:30am 15.9 S 12 14 - - 0.2 - - - - - - -
22/11:00am 16.1 SSW 10 13 - - 0.0 - - - - - - -
22/10:30am 16.1 SSW 8 12 - - 0.0 - - - - - - -
22/10:00am 15.8 SSW 8 11 - - 0.0 - - - - - - -
22/09:30am 15.2 SSW 7 10 - - 0.0 - - - - - - -
22/09:00am 15.4 SSW 6 9 - - 15.0 - - - - - - -
22/08:30am 14.3 SSW 6 9 - - 15.0 - - - - - - -
22/08:00am 14.0 WSW 5 8 - - 15.0 - - - - - - -
22/07:30am 13.3 WSW 5 7 - - 15.0 - - - - - - -
22/07:00am 12.6 WSW 4 6 - - 15.0 - - - - - - -
22/06:30am 12.2 W 4 5 - - 15.0 - - - - - - -
22/06:00am 12.2 W 4 4 - - 15.0 - - - - - - -
22/05:30am 12.5 W 4 4 - - 15.0 - - - - - - -
22/05:00am 12.9 W 2 2 - - 15.0 - - - - - - -
22/04:30am 12.8 WSW 3 4 - - 15.0 - - - - - - -
22/04:00am 13.1 W 3 4 - - 15.0 - - - - - - -
22/03:30am 13.2 N 3 4 - - 14.8 - - - - - - -
22/03:00am 13.6 E 9 14 - - 13.0 Rain - - - - - -
22/02:30am 13.6 S 1 4 - - 11.8 - - - - - - -
22/02:00am 13.7 ESE 9 14 - - 10.6 - - - - - - -
22/01:30am 13.4 SE 6 9 - - 10.4 - - - - - - -
22/01:00am 14.1 NNE 6 8 - - 0.8 - - - - - - -
22/12:30am 13.9 NE 7 9 - - 0.8 - - - - - - -
22/12:00am 14.5 ESE 16 19 - - 0.8 - - - - - - -
 
Date/Time
EST
Temp

°C
Wind Pressure Rain
since 9am
mm
Weather Cloud Vis
km
Sea
Height
m
Swell
Dir
 
Speed
knots
Gust
knots
hPa Trend Height
m
Period
s
Dir
21/11:30pm 14.9 ESE 18 21 - - 0.8 - - - - - - -
21/11:00pm 15.1 SE 10 12 - - 0.8 - - - - - - -
21/10:30pm 14.6 ESE 10 12 - - 0.6 - - - - - - -
21/10:00pm 13.7 WSW 3 5 - - 0.6 - - - - - - -
21/09:30pm 13.5 WSW 4 6 - - 0.6 - - - - - - -
21/09:00pm 14.1 SSW 5 7 - - 0.2 - - - - - - -
21/08:30pm 13.9 SW 6 9 - - 0.2 - - - - - - -
21/08:00pm 14.1 SSW 8 10 - - 0.2 - - - - - - -
21/07:30pm 13.7 SW 7 9 - - 0.2 - - - - - - -
21/07:00pm 14.2 SSW 7 11 - - 0.2 - - - - - - -
21/06:30pm 14.7 SSW 11 15 - - 0.2 - - - - - - -
21/06:00pm 15.0 S 13 15 - - 0.2 - - - - - - -
21/05:30pm 14.9 S 14 16 - - 0.2 - - - - - - -
21/05:00pm 15.4 S 14 16 - - 0.2 - - - - - - -
21/04:30pm 16.2 SSE 13 16 - - 0.2 - - - - - - -
21/04:00pm 15.7 SSE 14 17 - - 0.2 - - - - - - -
21/03:30pm 15.3 S 15 17 - - 0.2 - - - - - - -
21/03:00pm 15.1 SSE 15 18 - - 0.2 - - - - - - -
21/02:30pm 15.0 SSE 16 19 - - 0.2 - - - - - - -
21/02:00pm 15.9 SE 9 11 - - 0.2 - - - - - - -
21/01:30pm 14.7 ESE 14 17 - - 0.2 - - - - - - -
21/01:00pm 14.6 SE 14 19 - - 0.2 - - - - - - -
21/12:30pm 14.6 SW 5 11 - - 0.2 - - - - - - -
21/12:00pm 14.4 SW 7 9 - - 0.2 - - - - - - -
21/11:30am 14.7 SW 7 10 - - 0.2 - - - - - - -
21/11:00am 14.7 SW 8 11 - - 0.2 - - - - - - -
21/10:30am 13.6 SSW 9 14 - - 0.0 - - - - - - -
21/10:00am 13.6 WSW 8 14 - - 0.0 - - - - - - -
21/09:30am 13.0 WSW 7 10 - - 0.0 - - - - - - -
21/09:00am 13.5 SW 6 8 - - 1.0 Rain - - - - - -
21/08:30am 12.4 WSW 6 8 - - 0.8 - - - - - - -
21/08:00am 12.0 SW 8 11 - - 0.8 - - - - - - -
21/07:30am 11.9 SW 8 12 - - 0.6 - - - - - - -
21/07:00am 12.1 WSW 9 13 - - 0.2 - - - - - - -
21/06:30am 12.2 WSW 7 9 - - 0.2 - - - - - - -
21/06:00am 12.4 SW 6 11 - - 0.2 - - - - - - -
21/05:30am 12.5 SW 9 15 - - 0.2 - - - - - - -
21/05:00am 12.2 SW 9 12 - - 0.2 - - - - - - -
21/04:30am 12.1 SW 7 10 - - 0.2 - - - - - - -
21/04:00am 12.3 SW 6 9 - - 0.2 - - - - - - -
21/03:30am 12.3 SW 7 11 - - 0.2 - - - - - - -

Other Formats:

Comma delimited format used in spreadsheet applications
http://www.bom.gov.au/fwo/IDN60701/IDN60701.94774.axf

JavaScript Object Notation format (JSON) in row-major order
http://www.bom.gov.au/fwo/IDN60701/IDN60701.94774.json